Time;durP1;ratioP1;P1;durP2;ratioP2;P2;SDS_P1;SDS_P2;PMS_P1;PMS_P2;Temp;Humidity;BMP_temperature;BMP_pressure;BME280_temperature;BME280_humidity;BME280_pressure;Samples;Min_cycle;Max_cycle;Signal;HPM_P1;HPM_P2
2021/12/07 00:00:24;;;;;;;15.75;5.75;;;;;;;;;;4959783;28;20032;-56
2021/12/07 00:02:50;;;;;;;14.57;5.05;;;;;;;;;;4995662;28;20023;-58
2021/12/07 00:05:16;;;;;;;10.15;4.80;;;;;;;;;;4995377;28;20026;-58
2021/12/07 00:07:43;;;;;;;8.73;3.92;;;;;;;;;;4994741;28;20030;-57
2021/12/07 00:10:14;;;;;;;9.43;4.32;;;;;;;;;;4995074;28;20026;-59
2021/12/07 00:12:43;;;;;;;7.07;3.58;;;;;;;;;;4994686;28;20029;-55
2021/12/07 00:15:11;;;;;;;7.05;3.33;;;;;;;;;;4994947;28;20471;-55
2021/12/07 00:17:37;;;;;;;7.55;3.13;;;;;;;;;;4995331;28;20081;-55
2021/12/07 00:20:07;;;;;;;5.63;3.25;;;;;;;;;;4994751;28;20034;-57
2021/12/07 00:22:34;;;;;;;6.25;3.08;;;;;;;;;;4995119;28;20025;-56
2021/12/07 00:25:00;;;;;;;7.45;3.47;;;;;;;;;;5010240;28;20113;-56
2021/12/07 00:27:26;;;;;;;4.53;2.70;;;;;;;;;;4994611;28;20037;-56
2021/12/07 00:29:52;;;;;;;6.80;3.47;;;;;;;;;;4995215;28;20379;-59
2021/12/07 00:32:32;;;;;;;11.45;4.65;;;;;;;;;;4995212;28;20026;-58
2021/12/07 00:37:26;;;;;;;17.02;7.22;;;;;;;;;;4995005;28;20034;-59
2021/12/07 00:39:54;;;;;;;15.95;7.28;;;;;;;;;;4994730;28;20034;-58
2021/12/07 00:42:20;;;;;;;13.93;5.70;;;;;;;;;;4994616;28;20077;-58
2021/12/07 00:44:46;;;;;;;8.65;4.65;;;;;;;;;;4994845;28;20463;-59
2021/12/07 00:47:13;;;;;;;11.70;5.88;;;;;;;;;;4993693;28;20030;-57
2021/12/07 00:49:39;;;;;;;9.57;4.43;;;;;;;;;;4995023;28;20022;-58
2021/12/07 00:52:05;;;;;;;11.00;3.83;;;;;;;;;;4994467;28;20022;-55
2021/12/07 00:54:32;;;;;;;9.38;3.53;;;;;;;;;;4994596;28;20023;-58
2021/12/07 00:56:58;;;;;;;6.90;3.35;;;;;;;;;;4994340;28;20030;-59
2021/12/07 00:59:25;;;;;;;5.60;2.80;;;;;;;;;;4994625;28;20026;-56
2021/12/07 01:01:52;;;;;;;4.25;2.58;;;;;;;;;;4994447;28;20050;-57
2021/12/07 01:04:18;;;;;;;4.05;2.13;;;;;;;;;;4994555;28;20163;-58
2021/12/07 01:06:49;;;;;;;4.95;1.92;;;;;;;;;;4993427;28;20027;-59
2021/12/07 01:25:35;;;;;;;6.22;3.05;;;;;;;;;;4994254;28;20066;-59
2021/12/07 01:28:08;;;;;;;5.97;3.17;;;;;;;;;;4994442;28;20073;-58
2021/12/07 01:59:49;;;;;;;4.28;2.45;;;;;;;;;;4993841;28;20570;-57
2021/12/07 02:02:16;;;;;;;6.25;2.17;;;;;;;;;;4993437;28;20487;-56
2021/12/07 02:04:42;;;;;;;4.85;1.90;;;;;;;;;;4992702;28;20486;-54
2021/12/07 02:07:09;;;;;;;5.05;2.13;;;;;;;;;;4994034;28;20095;-57
2021/12/07 02:09:38;;;;;;;5.45;2.45;;;;;;;;;;4993929;28;20026;-57
2021/12/07 02:12:06;;;;;;;5.32;2.33;;;;;;;;;;4993634;28;20027;-55
2021/12/07 02:14:33;;;;;;;7.40;3.05;;;;;;;;;;4993551;28;20022;-58
2021/12/07 02:17:00;;;;;;;6.55;2.75;;;;;;;;;;4993575;28;20077;-58
2021/12/07 02:19:27;;;;;;;17.25;5.63;;;;;;;;;;4993780;28;20487;-59
2021/12/07 02:21:53;;;;;;;8.77;3.83;;;;;;;;;;4993563;28;20049;-57
2021/12/07 02:24:20;;;;;;;6.35;3.05;;;;;;;;;;4993857;28;20455;-59
2021/12/07 02:26:49;;;;;;;9.13;4.32;;;;;;;;;;4993726;28;20475;-56
2021/12/07 02:29:16;;;;;;;20.63;7.03;;;;;;;;;;4994042;28;20031;-58
2021/12/07 02:31:42;;;;;;;8.65;3.15;;;;;;;;;;4996813;28;20109;-60
2021/12/07 02:34:09;;;;;;;4.82;2.42;;;;;;;;;;4997332;28;20030;-54
2021/12/07 02:36:36;;;;;;;6.50;2.13;;;;;;;;;;4997394;28;20058;-59
2021/12/07 02:39:03;;;;;;;3.97;2.20;;;;;;;;;;4997495;28;20052;-59
2021/12/07 02:41:29;;;;;;;3.70;2.45;;;;;;;;;;4997311;28;20034;-55
2021/12/07 02:43:55;;;;;;;3.08;1.85;;;;;;;;;;4997417;28;20109;-60
2021/12/07 02:46:22;;;;;;;3.47;1.67;;;;;;;;;;4996887;28;20033;-54
2021/12/07 02:48:48;;;;;;;2.85;1.75;;;;;;;;;;4997072;28;20026;-62
2021/12/07 02:51:14;;;;;;;5.53;1.92;;;;;;;;;;4996854;28;20149;-56
2021/12/07 02:53:40;;;;;;;5.78;2.00;;;;;;;;;;4996811;28;20033;-55
2021/12/07 02:56:07;;;;;;;3.40;2.00;;;;;;;;;;4996821;28;20065;-56
2021/12/07 02:58:35;;;;;;;6.20;2.20;;;;;;;;;;4997084;28;20022;-56
2021/12/07 03:01:10;;;;;;;6.68;2.97;;;;;;;;;;4996517;28;20125;-57
2021/12/07 03:03:42;;;;;;;4.85;2.72;;;;;;;;;;4997102;28;20072;-57
2021/12/07 03:06:20;;;;;;;18.13;6.63;;;;;;;;;;4996901;28;20026;-58
2021/12/07 03:09:30;;;;;;;11.27;5.15;;;;;;;;;;4996929;28;20027;-59
2021/12/07 03:28:01;;;;;;;7.72;3.92;;;;;;;;;;4995059;28;20110;-59
2021/12/07 03:30:27;;;;;;;12.10;5.10;;;;;;;;;;4996071;28;20037;-59
2021/12/07 03:32:54;;;;;;;18.52;7.13;;;;;;;;;;4996479;28;20456;-60
2021/12/07 03:35:20;;;;;;;7.60;4.45;;;;;;;;;;4996246;28;20021;-56
2021/12/07 03:37:46;;;;;;;7.47;3.40;;;;;;;;;;4996517;28;20044;-58
2021/12/07 03:40:13;;;;;;;5.15;3.05;;;;;;;;;;4995667;28;20030;-59
2021/12/07 03:42:39;;;;;;;12.15;4.72;;;;;;;;;;4995375;28;20422;-60
2021/12/07 03:45:07;;;;;;;6.05;3.22;;;;;;;;;;4996025;28;20459;-58
2021/12/07 03:47:33;;;;;;;8.18;4.82;;;;;;;;;;4996032;28;20383;-52
2021/12/07 03:49:59;;;;;;;6.72;3.63;;;;;;;;;;4995448;28;20030;-54
2021/12/07 03:52:25;;;;;;;6.50;3.65;;;;;;;;;;4996303;28;20066;-59
2021/12/07 03:54:51;;;;;;;5.88;3.22;;;;;;;;;;4995914;28;20023;-58
2021/12/07 03:57:18;;;;;;;5.63;2.83;;;;;;;;;;4995473;28;20030;-57
2021/12/07 03:59:44;;;;;;;5.32;2.67;;;;;;;;;;4995864;28;20042;-59
2021/12/07 04:02:10;;;;;;;5.28;3.08;;;;;;;;;;4995803;28;20050;-54
2021/12/07 04:04:37;;;;;;;7.60;2.92;;;;;;;;;;4995101;28;20022;-58
2021/12/07 04:07:04;;;;;;;10.55;3.67;;;;;;;;;;4995822;28;20367;-59
2021/12/07 04:09:31;;;;;;;7.38;3.17;;;;;;;;;;4995084;28;20026;-58
2021/12/07 04:11:57;;;;;;;3.42;2.47;;;;;;;;;;4995499;28;20038;-58
2021/12/07 04:14:24;;;;;;;7.88;3.08;;;;;;;;;;4995416;28;20026;-56
2021/12/07 04:16:50;;;;;;;5.70;2.97;;;;;;;;;;4994987;28;20113;-59
2021/12/07 04:19:16;;;;;;;6.70;3.22;;;;;;;;;;4995351;28;20033;-56
2021/12/07 04:21:42;;;;;;;6.20;3.03;;;;;;;;;;4995366;28;20026;-57
2021/12/07 04:24:08;;;;;;;8.20;3.53;;;;;;;;;;4995019;28;20035;-57
2021/12/07 04:26:35;;;;;;;8.32;3.45;;;;;;;;;;4995243;28;20030;-56
2021/12/07 04:29:01;;;;;;;8.82;3.20;;;;;;;;;;4995089;28;20534;-59
2021/12/07 04:31:27;;;;;;;8.73;3.75;;;;;;;;;;4994469;28;20037;-55
2021/12/07 04:33:53;;;;;;;5.15;2.97;;;;;;;;;;4995089;28;20030;-57
2021/12/07 04:36:19;;;;;;;10.00;3.58;;;;;;;;;;4993263;28;20505;-59
2021/12/07 04:38:45;;;;;;;8.45;3.42;;;;;;;;;;4994098;28;20034;-60
2021/12/07 04:41:12;;;;;;;3.97;2.72;;;;;;;;;;4994182;28;20022;-58
2021/12/07 04:43:40;;;;;;;5.75;2.63;;;;;;;;;;5009945;28;20383;-58
2021/12/07 04:46:29;;;;;;;5.82;2.85;;;;;;;;;;4993842;28;20026;-58
2021/12/07 04:59:33;;;;;;;9.70;2.63;;;;;;;;;;4993803;28;20041;-59
2021/12/07 05:02:00;;;;;;;5.40;2.50;;;;;;;;;;4994523;28;20057;-58
2021/12/07 05:04:30;;;;;;;4.10;1.85;;;;;;;;;;4993649;28;20077;-58
2021/12/07 05:07:08;;;;;;;7.22;2.67;;;;;;;;;;4993893;28;20101;-58
2021/12/07 05:14:43;;;;;;;6.00;2.83;;;;;;;;;;4992326;28;20119;-57
2021/12/07 05:25:32;;;;;;;6.88;3.22;;;;;;;;;;4994291;28;20502;-56
2021/12/07 05:39:27;;;;;;;5.82;3.28;;;;;;;;;;4987626;28;20357;-56
2021/12/07 05:41:53;;;;;;;5.45;2.78;;;;;;;;;;4993003;28;20022;-57
2021/12/07 05:44:20;;;;;;;4.85;2.72;;;;;;;;;;4993971;28;20482;-59
2021/12/07 05:46:46;;;;;;;6.07;2.85;;;;;;;;;;4993934;28;20118;-57
2021/12/07 05:49:12;;;;;;;6.32;3.17;;;;;;;;;;4993782;28;20022;-58
2021/12/07 05:51:38;;;;;;;8.20;3.58;;;;;;;;;;4994108;28;20080;-58
2021/12/07 05:54:04;;;;;;;11.60;4.45;;;;;;;;;;4993855;28;20037;-55
2021/12/07 05:56:30;;;;;;;8.60;3.42;;;;;;;;;;4993736;28;20027;-58
2021/12/07 05:58:57;;;;;;;7.10;3.60;;;;;;;;;;4993513;28;20036;-56
2021/12/07 06:01:23;;;;;;;7.20;3.25;;;;;;;;;;4993641;28;20052;-51
2021/12/07 06:03:49;;;;;;;7.60;3.65;;;;;;;;;;4994000;28;20843;-58
2021/12/07 06:06:15;;;;;;;10.23;3.45;;;;;;;;;;4996508;28;20127;-57
2021/12/07 06:08:41;;;;;;;8.00;3.63;;;;;;;;;;4996743;28;20054;-58
2021/12/07 06:11:07;;;;;;;7.28;3.75;;;;;;;;;;4996112;28;20026;-56
2021/12/07 06:13:33;;;;;;;9.68;4.55;;;;;;;;;;4996493;28;20094;-58
2021/12/07 06:16:05;;;;;;;10.07;4.43;;;;;;;;;;4995603;28;20022;-58
2021/12/07 06:18:31;;;;;;;17.00;6.57;;;;;;;;;;4997112;28;20102;-58
2021/12/07 06:20:57;;;;;;;16.40;7.35;;;;;;;;;;4997257;28;20010;-57
2021/12/07 06:23:24;;;;;;;16.17;5.30;;;;;;;;;;4996660;28;20379;-57
2021/12/07 06:25:50;;;;;;;12.82;6.28;;;;;;;;;;4997341;28;20057;-55
2021/12/07 06:28:18;;;;;;;18.92;7.47;;;;;;;;;;4996860;28;20015;-57
2021/12/07 06:30:45;;;;;;;12.73;4.85;;;;;;;;;;4996995;28;20352;-59
2021/12/07 06:33:12;;;;;;;10.13;5.55;;;;;;;;;;4997403;28;20026;-58
2021/12/07 06:35:38;;;;;;;8.50;4.20;;;;;;;;;;4997054;28;20493;-56
2021/12/07 06:38:04;;;;;;;8.57;4.10;;;;;;;;;;4996621;28;20475;-56
2021/12/07 06:40:31;;;;;;;9.32;4.55;;;;;;;;;;4997305;28;20033;-56
2021/12/07 06:42:59;;;;;;;33.70;14.20;;;;;;;;;;4997288;28;20068;-53
2021/12/07 06:45:26;;;;;;;9.88;4.35;;;;;;;;;;4996895;28;20030;-57
2021/12/07 06:47:53;;;;;;;9.40;4.63;;;;;;;;;;4996150;28;20022;-55
2021/12/07 06:50:20;;;;;;;9.55;4.65;;;;;;;;;;4995108;28;20521;-55
2021/12/07 06:52:46;;;;;;;8.05;4.22;;;;;;;;;;4996145;28;20032;-59
2021/12/07 06:55:12;;;;;;;9.13;4.72;;;;;;;;;;4995548;28;20050;-55
2021/12/07 06:57:39;;;;;;;9.07;4.38;;;;;;;;;;4996121;28;20486;-57
2021/12/07 07:00:07;;;;;;;9.23;4.45;;;;;;;;;;4996735;28;20361;-56
2021/12/07 07:02:33;;;;;;;10.52;4.78;;;;;;;;;;4996393;28;20069;-58
2021/12/07 07:04:59;;;;;;;14.98;6.07;;;;;;;;;;4996509;28;20037;-56
2021/12/07 07:07:25;;;;;;;10.07;4.80;;;;;;;;;;4996791;28;20037;-56
2021/12/07 07:09:52;;;;;;;8.27;4.68;;;;;;;;;;4996814;28;20050;-58
2021/12/07 07:12:19;;;;;;;9.18;5.10;;;;;;;;;;4996475;28;20471;-58
2021/12/07 07:14:45;;;;;;;11.63;4.88;;;;;;;;;;4996460;28;20038;-57
2021/12/07 07:17:11;;;;;;;10.07;5.20;;;;;;;;;;4995936;28;20040;-58
2021/12/07 07:19:37;;;;;;;12.70;5.22;;;;;;;;;;4996022;28;20069;-56
2021/12/07 07:22:04;;;;;;;10.77;5.25;;;;;;;;;;4996338;28;20022;-58
2021/12/07 07:24:30;;;;;;;14.63;5.60;;;;;;;;;;4996553;28;20026;-58
2021/12/07 07:26:57;;;;;;;11.68;5.43;;;;;;;;;;4996514;28;20095;-56
2021/12/07 07:29:23;;;;;;;12.93;5.57;;;;;;;;;;4996388;28;20029;-57
2021/12/07 07:31:50;;;;;;;10.73;5.30;;;;;;;;;;4996366;28;20026;-54
2021/12/07 07:34:16;;;;;;;10.05;5.43;;;;;;;;;;4995710;28;20472;-56
2021/12/07 07:36:42;;;;;;;12.48;6.22;;;;;;;;;;4995891;28;20041;-58
2021/12/07 07:39:10;;;;;;;9.70;5.22;;;;;;;;;;4996188;28;20033;-58
2021/12/07 07:41:37;;;;;;;12.27;5.53;;;;;;;;;;4995861;28;20022;-54
2021/12/07 07:44:03;;;;;;;15.15;6.95;;;;;;;;;;4995823;28;20379;-52
2021/12/07 07:46:30;;;;;;;13.07;6.07;;;;;;;;;;4995701;28;20072;-57
2021/12/07 07:48:56;;;;;;;11.40;5.75;;;;;;;;;;4996081;28;20022;-55
2021/12/07 07:51:22;;;;;;;10.43;5.47;;;;;;;;;;4996043;28;20030;-55
2021/12/07 07:53:50;;;;;;;12.65;5.88;;;;;;;;;;4995402;28;20030;-57
2021/12/07 07:56:17;;;;;;;16.00;6.32;;;;;;;;;;4995737;28;20042;-59
2021/12/07 07:58:43;;;;;;;15.00;6.78;;;;;;;;;;4995794;28;20039;-55
2021/12/07 08:01:10;;;;;;;12.20;6.28;;;;;;;;;;4994988;28;20491;-59
2021/12/07 08:03:36;;;;;;;14.68;6.90;;;;;;;;;;4995457;28;20029;-53
2021/12/07 08:06:02;;;;;;;12.13;6.57;;;;;;;;;;4995784;28;20387;-54
2021/12/07 08:08:28;;;;;;;16.98;6.85;;;;;;;;;;4995075;28;20022;-58
2021/12/07 08:10:55;;;;;;;17.20;7.32;;;;;;;;;;4995689;28;20366;-53
2021/12/07 08:13:21;;;;;;;14.90;7.47;;;;;;;;;;4995460;28;20014;-57
2021/12/07 08:15:49;;;;;;;16.90;8.27;;;;;;;;;;4994804;28;20482;-56
2021/12/07 08:18:15;;;;;;;15.20;7.53;;;;;;;;;;4995715;28;20031;-58
2021/12/07 08:20:42;;;;;;;15.05;7.43;;;;;;;;;;4995373;28;20430;-58
2021/12/07 08:23:08;;;;;;;17.20;7.95;;;;;;;;;;4995081;28;20024;-57
2021/12/07 08:25:37;;;;;;;17.27;6.70;;;;;;;;;;4995371;28;20072;-58
2021/12/07 08:28:04;;;;;;;15.88;7.13;;;;;;;;;;4994424;28;20022;-56
2021/12/07 08:30:30;;;;;;;16.90;8.27;;;;;;;;;;4994964;28;20023;-55
2021/12/07 08:32:56;;;;;;;15.30;7.40;;;;;;;;;;5011179;28;20022;-56
2021/12/07 08:35:23;;;;;;;16.13;8.05;;;;;;;;;;4994848;28;20050;-59
2021/12/07 08:37:49;;;;;;;14.10;7.13;;;;;;;;;;4994770;28;20030;-57
2021/12/07 08:40:17;;;;;;;14.32;7.03;;;;;;;;;;4995638;28;20023;-55
2021/12/07 08:42:43;;;;;;;19.25;9.05;;;;;;;;;;4994458;28;20026;-58
2021/12/07 08:45:10;;;;;;;21.50;8.23;;;;;;;;;;4994728;28;20026;-56
2021/12/07 08:47:36;;;;;;;15.05;7.93;;;;;;;;;;4995031;28;20058;-57
2021/12/07 08:50:04;;;;;;;15.40;7.75;;;;;;;;;;4994586;28;20019;-58
2021/12/07 08:52:30;;;;;;;13.95;7.93;;;;;;;;;;4995162;28;20022;-56
2021/12/07 09:00:16;;;;;;;18.67;9.48;;;;;;;;;;4994644;28;20084;-56
2021/12/07 09:02:42;;;;;;;15.85;7.53;;;;;;;;;;4994724;28;20026;-54
2021/12/07 09:05:09;;;;;;;15.15;7.72;;;;;;;;;;4994158;28;20023;-59
2021/12/07 09:07:36;;;;;;;15.73;7.82;;;;;;;;;;4994966;28;20374;-54
2021/12/07 09:10:05;;;;;;;16.60;8.35;;;;;;;;;;4995040;28;20407;-56
2021/12/07 09:12:31;;;;;;;18.25;8.48;;;;;;;;;;4994203;28;20418;-56
2021/12/07 09:14:57;;;;;;;19.27;9.70;;;;;;;;;;4994225;28;20037;-58
2021/12/07 09:17:23;;;;;;;18.52;7.65;;;;;;;;;;4994237;28;20378;-55
2021/12/07 09:19:50;;;;;;;13.98;7.20;;;;;;;;;;4994470;28;20113;-56
2021/12/07 09:22:16;;;;;;;14.65;7.30;;;;;;;;;;5009565;28;20113;-56
2021/12/07 09:24:43;;;;;;;16.60;7.30;;;;;;;;;;4994618;28;20023;-53
2021/12/07 09:27:09;;;;;;;14.75;7.32;;;;;;;;;;4994511;28;20052;-58
2021/12/07 09:29:36;;;;;;;13.00;6.75;;;;;;;;;;4994076;28;20368;-55
2021/12/07 09:32:03;;;;;;;12.55;5.68;;;;;;;;;;4993920;28;20105;-57
2021/12/07 09:34:29;;;;;;;16.60;6.13;;;;;;;;;;4994253;28;20030;-57
2021/12/07 09:36:55;;;;;;;12.80;5.82;;;;;;;;;;4994698;28;20088;-55
2021/12/07 09:39:21;;;;;;;13.32;5.57;;;;;;;;;;4998087;28;20030;-54
2021/12/07 09:41:48;;;;;;;11.60;5.68;;;;;;;;;;5000426;28;20026;-56
2021/12/07 09:44:15;;;;;;;16.95;6.75;;;;;;;;;;5000736;28;20050;-58
2021/12/07 09:46:41;;;;;;;13.75;7.03;;;;;;;;;;5000009;28;20036;-59
2021/12/07 09:49:08;;;;;;;12.32;5.80;;;;;;;;;;5000983;28;20034;-59
2021/12/07 09:51:36;;;;;;;11.10;5.35;;;;;;;;;;5000395;28;20387;-55
2021/12/07 09:54:03;;;;;;;12.13;5.10;;;;;;;;;;5000324;28;20033;-59
2021/12/07 09:56:29;;;;;;;13.00;5.47;;;;;;;;;;5000514;28;20030;-59
2021/12/07 09:58:57;;;;;;;12.25;5.78;;;;;;;;;;5000339;28;20030;-60
2021/12/07 10:01:24;;;;;;;16.33;5.50;;;;;;;;;;5000298;28;20184;-59
2021/12/07 10:03:52;;;;;;;9.18;5.40;;;;;;;;;;5000601;28;20023;-57
2021/12/07 10:06:18;;;;;;;10.57;5.22;;;;;;;;;;4999914;28;20472;-55
2021/12/07 10:08:45;;;;;;;9.75;5.55;;;;;;;;;;5000281;28;20364;-57
2021/12/07 10:11:12;;;;;;;13.98;6.32;;;;;;;;;;5000221;28;20050;-61
2021/12/07 10:13:39;;;;;;;12.55;6.88;;;;;;;;;;5000458;28;20379;-57
2021/12/07 10:16:06;;;;;;;13.95;6.00;;;;;;;;;;5000243;28;20030;-58
2021/12/07 10:18:36;;;;;;;9.60;5.63;;;;;;;;;;5000424;28;20036;-59
2021/12/07 10:21:04;;;;;;;15.77;6.60;;;;;;;;;;5000181;28;20439;-55
2021/12/07 10:23:36;;;;;;;14.05;7.25;;;;;;;;;;5000024;28;20019;-59
2021/12/07 10:26:05;;;;;;;17.55;7.78;;;;;;;;;;5000013;28;20168;-61
2021/12/07 10:28:36;;;;;;;14.20;6.20;;;;;;;;;;5000136;28;20037;-60
2021/12/07 10:31:23;;;;;;;16.55;7.45;;;;;;;;;;5000366;28;20018;-58
2021/12/07 10:33:52;;;;;;;17.23;6.97;;;;;;;;;;5000270;28;20407;-61
2021/12/07 10:36:19;;;;;;;21.00;8.30;;;;;;;;;;4999873;28;20037;-60
2021/12/07 10:39:08;;;;;;;13.77;7.50;;;;;;;;;;5000302;28;20470;-58
2021/12/07 10:41:39;;;;;;;16.00;8.15;;;;;;;;;;4992077;28;20062;-57
2021/12/07 10:44:13;;;;;;;16.27;7.63;;;;;;;;;;5000296;28;20014;-59
2021/12/07 10:46:44;;;;;;;13.02;6.28;;;;;;;;;;5000278;28;20034;-59
2021/12/07 10:49:22;;;;;;;11.93;6.22;;;;;;;;;;5000217;28;20105;-58
2021/12/07 10:51:56;;;;;;;12.73;6.82;;;;;;;;;;4995898;28;20022;-58
2021/12/07 10:54:23;;;;;;;15.82;7.80;;;;;;;;;;4996778;28;20033;-59
2021/12/07 10:56:50;;;;;;;17.60;8.02;;;;;;;;;;4996827;28;20085;-59
2021/12/07 10:59:16;;;;;;;14.23;7.35;;;;;;;;;;4997036;28;20558;-60
2021/12/07 11:01:45;;;;;;;12.63;6.25;;;;;;;;;;4996760;28;20054;-59
2021/12/07 11:04:37;;;;;;;15.60;7.60;;;;;;;;;;4995788;28;20049;-60
2021/12/07 11:07:03;;;;;;;18.02;8.07;;;;;;;;;;4994119;28;20046;-58
2021/12/07 11:09:30;;;;;;;12.05;6.82;;;;;;;;;;4996234;28;20057;-59
2021/12/07 11:12:06;;;;;;;13.73;6.43;;;;;;;;;;4995972;28;20023;-59
2021/12/07 11:14:40;;;;;;;15.40;7.20;;;;;;;;;;4996492;28;20069;-58
2021/12/07 11:17:07;;;;;;;14.07;7.45;;;;;;;;;;4996248;28;20081;-59
2021/12/07 11:19:33;;;;;;;16.08;6.88;;;;;;;;;;4996584;28;20170;-59
2021/12/07 11:22:00;;;;;;;14.82;7.63;;;;;;;;;;4997025;28;20023;-58
2021/12/07 11:24:36;;;;;;;11.02;6.28;;;;;;;;;;4995927;28;20033;-57
2021/12/07 11:30:06;;;;;;;15.93;6.30;;;;;;;;;;4996502;28;20088;-59
2021/12/07 11:32:33;;;;;;;21.30;9.45;;;;;;;;;;4996172;28;20420;-60
2021/12/07 11:35:10;;;;;;;11.40;6.50;;;;;;;;;;4996346;28;20027;-59
2021/12/07 11:37:38;;;;;;;14.65;7.55;;;;;;;;;;4995917;28;20125;-60
2021/12/07 11:40:06;;;;;;;16.83;7.97;;;;;;;;;;4995965;28;20546;-59
2021/12/07 11:42:37;;;;;;;15.65;7.68;;;;;;;;;;4995999;28;20049;-59
2021/12/07 11:45:10;;;;;;;16.88;8.38;;;;;;;;;;4995919;28;20375;-57
2021/12/07 11:47:41;;;;;;;18.95;8.32;;;;;;;;;;4996247;28;20031;-58
2021/12/07 11:50:07;;;;;;;;;;;;;;;;;;4996751;28;20049;-63
2021/12/07 11:52:33;;;;;;;14.57;6.85;;;;;;;;;;4995811;28;20362;-59
2021/12/07 11:54:59;;;;;;;17.95;8.60;;;;;;;;;;4995955;28;20089;-59
2021/12/07 11:57:25;;;;;;;20.58;8.32;;;;;;;;;;4995847;28;20027;-61
2021/12/07 11:59:52;;;;;;;20.85;8.82;;;;;;;;;;4995615;28;20066;-59
2021/12/07 12:02:18;;;;;;;17.85;8.43;;;;;;;;;;4996202;28;20058;-61
2021/12/07 12:04:45;;;;;;;15.98;7.82;;;;;;;;;;4995805;28;20439;-59
2021/12/07 12:07:11;;;;;;;13.88;6.50;;;;;;;;;;4995701;28;20026;-58
2021/12/07 12:09:45;;;;;;;17.17;7.80;;;;;;;;;;4995886;28;20490;-59
2021/12/07 12:12:17;;;;;;;14.82;7.55;;;;;;;;;;4995935;28;20526;-60
2021/12/07 12:14:48;;;;;;;13.30;6.72;;;;;;;;;;4995411;28;20038;-59
2021/12/07 12:17:18;;;;;;;12.48;6.22;;;;;;;;;;5010532;28;20117;-59
2021/12/07 12:19:57;;;;;;;16.50;7.60;;;;;;;;;;4995183;28;20502;-60
2021/12/07 12:22:31;;;;;;;14.38;6.82;;;;;;;;;;4995947;28;20030;-61
2021/12/07 12:25:00;;;;;;;11.73;6.80;;;;;;;;;;4995356;28;20026;-60
2021/12/07 12:27:30;;;;;;;15.38;6.80;;;;;;;;;;4995057;28;20100;-59
2021/12/07 12:29:57;;;;;;;15.02;7.53;;;;;;;;;;4996190;28;20129;-59
2021/12/07 12:32:28;;;;;;;11.55;6.70;;;;;;;;;;4995240;28;20022;-59
2021/12/07 12:34:55;;;;;;;15.52;6.35;;;;;;;;;;4994710;28;20022;-60
2021/12/07 12:37:26;;;;;;;12.93;6.60;;;;;;;;;;4995142;28;20038;-59
2021/12/07 12:39:58;;;;;;;11.68;5.95;;;;;;;;;;4995929;28;20031;-58
2021/12/07 12:42:27;;;;;;;11.05;6.07;;;;;;;;;;4994452;28;20434;-61
2021/12/07 12:45:08;;;;;;;16.38;6.88;;;;;;;;;;4994976;28;20097;-60
2021/12/07 12:47:34;;;;;;;16.88;6.97;;;;;;;;;;4994201;28;20142;-59
2021/12/07 12:50:11;;;;;;;13.68;7.30;;;;;;;;;;4994804;28;20030;-59
2021/12/07 12:52:42;;;;;;;14.38;7.35;;;;;;;;;;4994523;28;20027;-59
2021/12/07 12:55:25;;;;;;;14.93;6.88;;;;;;;;;;4994258;28;20502;-60
2021/12/07 12:57:52;;;;;;;15.35;7.25;;;;;;;;;;4994562;28;20066;-60
2021/12/07 13:00:19;;;;;;;11.95;7.25;;;;;;;;;;4993186;28;20030;-59
2021/12/07 13:02:50;;;;;;;12.75;6.80;;;;;;;;;;4994545;28;20072;-59
2021/12/07 13:05:18;;;;;;;14.82;7.10;;;;;;;;;;4994528;28;20109;-60
2021/12/07 13:07:45;;;;;;;15.95;7.85;;;;;;;;;;4994582;28;20109;-61
2021/12/07 13:10:11;;;;;;;15.82;7.65;;;;;;;;;;4994277;28;20026;-58
2021/12/07 13:12:38;;;;;;;12.52;7.70;;;;;;;;;;4993953;28;20364;-57
2021/12/07 13:15:11;;;;;;;13.55;6.90;;;;;;;;;;4993766;28;20083;-58
2021/12/07 13:17:42;;;;;;;11.30;6.70;;;;;;;;;;4993801;28;20027;-60
2021/12/07 13:20:11;;;;;;;14.18;6.72;;;;;;;;;;4994719;28;20030;-59
2021/12/07 13:22:38;;;;;;;12.45;6.22;;;;;;;;;;4994116;28;20030;-60
2021/12/07 13:25:13;;;;;;;12.02;6.25;;;;;;;;;;4994357;28;20014;-57
2021/12/07 13:27:56;;;;;;;17.15;7.43;;;;;;;;;;4994726;28;20073;-61
2021/12/07 13:30:24;;;;;;;11.27;6.20;;;;;;;;;;4994260;28;20448;-60
2021/12/07 13:33:11;;;;;;;15.25;7.75;;;;;;;;;;4994522;28;20065;-60
2021/12/07 13:35:37;;;;;;;21.08;8.32;;;;;;;;;;4994071;28;20035;-60
2021/12/07 13:38:14;;;;;;;27.25;9.93;;;;;;;;;;4994007;28;20475;-60
2021/12/07 13:40:40;;;;;;;33.92;10.60;;;;;;;;;;4994262;28;20023;-60
2021/12/07 13:43:06;;;;;;;21.95;7.53;;;;;;;;;;4993199;28;20022;-60
2021/12/07 13:45:32;;;;;;;15.80;7.60;;;;;;;;;;4993028;28;20022;-60
2021/12/07 13:48:03;;;;;;;12.43;6.00;;;;;;;;;;4993798;28;20034;-59
2021/12/07 13:50:30;;;;;;;10.23;5.70;;;;;;;;;;4993704;28;20371;-59
2021/12/07 13:52:57;;;;;;;12.85;6.18;;;;;;;;;;4992922;28;20037;-59
2021/12/07 13:55:28;;;;;;;12.30;5.53;;;;;;;;;;4993066;28;20026;-60
2021/12/07 13:57:56;;;;;;;12.80;6.20;;;;;;;;;;4993491;28;20093;-60
2021/12/07 14:00:24;;;;;;;10.55;6.18;;;;;;;;;;4993506;28;20026;-60
2021/12/07 14:02:55;;;;;;;13.90;5.78;;;;;;;;;;4994412;28;20037;-60
2021/12/07 14:05:23;;;;;;;9.30;5.73;;;;;;;;;;4994155;28;20033;-60
2021/12/07 14:07:50;;;;;;;11.55;5.30;;;;;;;;;;4993621;28;20257;-60
2021/12/07 14:10:19;;;;;;;14.85;6.15;;;;;;;;;;4993868;28;20092;-60
2021/12/07 14:12:47;;;;;;;11.45;5.70;;;;;;;;;;4993609;28;20026;-60
2021/12/07 14:15:15;;;;;;;11.43;4.97;;;;;;;;;;4993574;28;20034;-60
2021/12/07 14:17:43;;;;;;;11.48;6.10;;;;;;;;;;4994355;28;20113;-60
2021/12/07 14:20:09;;;;;;;11.30;5.38;;;;;;;;;;4993288;28;20383;-60
2021/12/07 14:22:35;;;;;;;13.02;5.75;;;;;;;;;;4993540;28;20027;-60
2021/12/07 14:25:02;;;;;;;12.35;6.25;;;;;;;;;;4993770;28;20106;-59
2021/12/07 14:27:28;;;;;;;11.80;5.93;;;;;;;;;;4997239;28;20030;-60
2021/12/07 14:29:54;;;;;;;14.43;6.85;;;;;;;;;;4997538;28;20027;-60
2021/12/07 14:32:20;;;;;;;14.00;6.22;;;;;;;;;;4997904;28;20463;-57
2021/12/07 14:34:47;;;;;;;14.57;7.50;;;;;;;;;;4997492;28;20109;-60
2021/12/07 14:37:13;;;;;;;15.68;6.57;;;;;;;;;;4997323;28;20074;-56
2021/12/07 14:39:41;;;;;;;15.32;6.90;;;;;;;;;;4996897;28;20084;-59
2021/12/07 14:42:15;;;;;;;13.00;6.50;;;;;;;;;;4997059;28;20026;-60
2021/12/07 14:44:45;;;;;;;10.15;5.25;;;;;;;;;;4996393;28;20026;-60
2021/12/07 14:47:12;;;;;;;12.15;6.28;;;;;;;;;;4996348;28;20026;-59
2021/12/07 14:49:39;;;;;;;11.70;5.53;;;;;;;;;;4996879;28;20026;-59
2021/12/07 14:52:10;;;;;;;23.23;7.85;;;;;;;;;;4996833;28;20111;-57
2021/12/07 14:54:36;;;;;;;12.38;6.15;;;;;;;;;;4996123;28;20332;-59
2021/12/07 14:57:03;;;;;;;13.40;6.00;;;;;;;;;;4996245;28;20088;-59
2021/12/07 14:59:29;;;;;;;12.48;6.47;;;;;;;;;;4995268;28;20026;-59
2021/12/07 15:01:57;;;;;;;11.65;6.07;;;;;;;;;;4995334;28;20402;-58
2021/12/07 15:04:24;;;;;;;13.35;5.93;;;;;;;;;;4996936;28;20110;-60
2021/12/07 15:06:52;;;;;;;14.68;5.50;;;;;;;;;;4996846;28;20121;-58
2021/12/07 15:09:19;;;;;;;15.23;6.70;;;;;;;;;;4995910;28;20031;-59
2021/12/07 15:11:47;;;;;;;9.05;5.43;;;;;;;;;;4995830;28;20022;-55
2021/12/07 15:14:15;;;;;;;10.18;5.43;;;;;;;;;;4996092;28;20362;-56
2021/12/07 15:16:42;;;;;;;12.45;4.85;;;;;;;;;;4996284;28;20034;-56
2021/12/07 15:19:08;;;;;;;10.35;5.75;;;;;;;;;;4997093;28;20034;-60
2021/12/07 15:21:36;;;;;;;15.68;6.65;;;;;;;;;;4996528;28;20061;-59
2021/12/07 15:24:09;;;;;;;18.30;7.07;;;;;;;;;;4996401;28;20502;-59
2021/12/07 15:26:36;;;;;;;15.90;7.85;;;;;;;;;;4996328;28;20041;-55
2021/12/07 15:29:16;;;;;;;16.40;7.60;;;;;;;;;;4995886;28;20485;-59
2021/12/07 15:31:45;;;;;;;14.70;7.30;;;;;;;;;;4996531;28;20022;-59
2021/12/07 15:34:12;;;;;;;18.08;8.00;;;;;;;;;;4996569;28;20093;-60
2021/12/07 15:36:45;;;;;;;16.58;8.02;;;;;;;;;;4977910;28;20034;-59
2021/12/07 15:39:13;;;;;;;19.92;8.95;;;;;;;;;;4996558;28;20352;-58
2021/12/07 15:41:41;;;;;;;19.27;8.90;;;;;;;;;;4995951;28;20019;-61
2021/12/07 15:44:08;;;;;;;18.63;9.48;;;;;;;;;;4995707;28;20031;-59
2021/12/07 15:46:34;;;;;;;23.00;10.68;;;;;;;;;;4996280;28;20026;-58
2021/12/07 15:49:01;;;;;;;22.70;10.57;;;;;;;;;;4996062;28;20022;-59
2021/12/07 15:51:27;;;;;;;24.25;10.18;;;;;;;;;;4995745;28;20035;-59
2021/12/07 15:53:55;;;;;;;27.85;11.48;;;;;;;;;;4995694;28;20030;-59
2021/12/07 15:56:21;;;;;;;26.65;12.05;;;;;;;;;;4995493;28;20121;-61
2021/12/07 15:58:48;;;;;;;30.65;12.98;;;;;;;;;;4995923;28;20042;-60
2021/12/07 16:01:14;;;;;;;33.40;15.00;;;;;;;;;;4995439;28;20134;-55
2021/12/07 16:03:45;;;;;;;27.27;14.02;;;;;;;;;;4977983;28;20053;-60
2021/12/07 16:06:22;;;;;;;26.27;14.17;;;;;;;;;;4996216;28;20463;-57
2021/12/07 16:08:48;;;;;;;30.30;13.80;;;;;;;;;;4995748;28;20288;-58
2021/12/07 16:11:16;;;;;;;29.35;13.07;;;;;;;;;;4995324;28;20077;-59
2021/12/07 16:13:49;;;;;;;29.75;13.40;;;;;;;;;;4996171;28;20358;-56
2021/12/07 16:16:17;;;;;;;23.92;12.27;;;;;;;;;;4994786;28;20113;-59
2021/12/07 16:18:43;;;;;;;25.60;11.45;;;;;;;;;;4994772;28;20034;-60
2021/12/07 16:21:10;;;;;;;26.83;13.02;;;;;;;;;;4980551;28;20114;-59
2021/12/07 16:23:39;;;;;;;25.88;12.52;;;;;;;;;;4975516;28;20498;-58
2021/12/07 16:26:10;;;;;;;25.65;11.82;;;;;;;;;;4976236;28;20023;-59